Terminal Aerodrome Forecast
Issued by NWS

Home | Current Version | Previous Version | Text Only | Print | Product List | Glossary On
Versions: 1 2 3 4 5 6 7 8 9 10 11 12 13 14
737
FTUS42 KMLB 240603 AAA
TAFTIX
TAF AMD
KTIX 240603Z 2406/2506 VRB02KT P6SM SKC
     FM241700 09008KT P6SM VCSH SCT040
     FM242000 10012KT P6SM SCT050
     FM250100 15004KT P6SM SKC
      AMD NOT SKED 2406/2411=

USA.gov is the U.S. government's official web portal to all federal, state and local government web resources and services.